sensor_id;sensor_type;location;lat;lon;timestamp;P1;durP1;ratioP1;P2;durP2;ratioP2
76727;SDS011;65652;53.132;18.026;2023-06-10T00:01:50;7.40;;;3.70;;
76727;SDS011;65652;53.132;18.026;2023-06-10T00:04:21;8.80;;;3.70;;
76727;SDS011;65652;53.132;18.026;2023-06-10T00:06:48;7.60;;;3.80;;
76727;SDS011;65652;53.132;18.026;2023-06-10T00:09:16;9.30;;;3.90;;
76727;SDS011;65652;53.132;18.026;2023-06-10T00:11:44;8.30;;;3.80;;
76727;SDS011;65652;53.132;18.026;2023-06-10T00:14:11;7.40;;;3.50;;
76727;SDS011;65652;53.132;18.026;2023-06-10T00:16:38;7.90;;;3.60;;
76727;SDS011;65652;53.132;18.026;2023-06-10T00:19:05;9.20;;;3.70;;
76727;SDS011;65652;53.132;18.026;2023-06-10T00:21:34;8.90;;;3.70;;
76727;SDS011;65652;53.132;18.026;2023-06-10T00:24:07;7.70;;;3.90;;
76727;SDS011;65652;53.132;18.026;2023-06-10T00:26:38;8.80;;;3.70;;
76727;SDS011;65652;53.132;18.026;2023-06-10T00:29:06;8.50;;;3.90;;
76727;SDS011;65652;53.132;18.026;2023-06-10T00:31:34;9.80;;;4.20;;
76727;SDS011;65652;53.132;18.026;2023-06-10T00:34:02;7.30;;;3.60;;
76727;SDS011;65652;53.132;18.026;2023-06-10T00:36:30;7.70;;;3.80;;
76727;SDS011;65652;53.132;18.026;2023-06-10T00:38:57;10.20;;;4.00;;
76727;SDS011;65652;53.132;18.026;2023-06-10T00:41:25;7.50;;;3.60;;
76727;SDS011;65652;53.132;18.026;2023-06-10T00:43:55;11.70;;;3.80;;
76727;SDS011;65652;53.132;18.026;2023-06-10T00:46:23;7.40;;;3.40;;
76727;SDS011;65652;53.132;18.026;2023-06-10T00:48:52;8.30;;;3.60;;
76727;SDS011;65652;53.132;18.026;2023-06-10T00:51:19;8.70;;;3.90;;
76727;SDS011;65652;53.132;18.026;2023-06-10T00:53:48;8.70;;;3.70;;
76727;SDS011;65652;53.132;18.026;2023-06-10T00:58:43;8.50;;;3.50;;
76727;SDS011;65652;53.132;18.026;2023-06-10T01:01:11;10.20;;;3.90;;
76727;SDS011;65652;53.132;18.026;2023-06-10T01:03:39;8.80;;;3.70;;
76727;SDS011;65652;53.132;18.026;2023-06-10T01:06:09;8.80;;;3.70;;
76727;SDS011;65652;53.132;18.026;2023-06-10T01:08:57;7.40;;;4.00;;
76727;SDS011;65652;53.132;18.026;2023-06-10T01:11:38;8.70;;;3.50;;
76727;SDS011;65652;53.132;18.026;2023-06-10T01:14:10;7.30;;;3.80;;
76727;SDS011;65652;53.132;18.026;2023-06-10T01:16:39;8.80;;;4.20;;
76727;SDS011;65652;53.132;18.026;2023-06-10T01:19:07;7.20;;;3.90;;
76727;SDS011;65652;53.132;18.026;2023-06-10T01:21:34;10.40;;;3.70;;
76727;SDS011;65652;53.132;18.026;2023-06-10T01:24:02;8.40;;;4.10;;
76727;SDS011;65652;53.132;18.026;2023-06-10T01:26:30;11.50;;;3.90;;
76727;SDS011;65652;53.132;18.026;2023-06-10T01:29:07;7.80;;;3.50;;
76727;SDS011;65652;53.132;18.026;2023-06-10T01:34:32;7.50;;;3.50;;
76727;SDS011;65652;53.132;18.026;2023-06-10T01:37:00;8.40;;;3.80;;
76727;SDS011;65652;53.132;18.026;2023-06-10T01:39:30;10.50;;;4.20;;
76727;SDS011;65652;53.132;18.026;2023-06-10T01:41:59;8.20;;;3.60;;
76727;SDS011;65652;53.132;18.026;2023-06-10T01:44:27;9.70;;;3.80;;
76727;SDS011;65652;53.132;18.026;2023-06-10T01:46:54;7.10;;;3.70;;
76727;SDS011;65652;53.132;18.026;2023-06-10T01:49:21;8.80;;;3.90;;
76727;SDS011;65652;53.132;18.026;2023-06-10T01:51:50;8.10;;;3.80;;
76727;SDS011;65652;53.132;18.026;2023-06-10T01:54:17;8.20;;;3.80;;
76727;SDS011;65652;53.132;18.026;2023-06-10T01:56:46;7.60;;;4.00;;
76727;SDS011;65652;53.132;18.026;2023-06-10T01:59:13;8.00;;;3.90;;
76727;SDS011;65652;53.132;18.026;2023-06-10T02:01:40;6.80;;;3.70;;
76727;SDS011;65652;53.132;18.026;2023-06-10T02:04:07;8.20;;;4.30;;
76727;SDS011;65652;53.132;18.026;2023-06-10T02:06:33;7.90;;;3.60;;
76727;SDS011;65652;53.132;18.026;2023-06-10T02:09:03;10.40;;;4.00;;
76727;SDS011;65652;53.132;18.026;2023-06-10T02:11:30;7.50;;;3.70;;
76727;SDS011;65652;53.132;18.026;2023-06-10T02:13:57;7.90;;;3.70;;
76727;SDS011;65652;53.132;18.026;2023-06-10T02:16:24;8.30;;;4.30;;
76727;SDS011;65652;53.132;18.026;2023-06-10T02:18:51;8.70;;;4.20;;
76727;SDS011;65652;53.132;18.026;2023-06-10T02:21:18;9.70;;;4.50;;
76727;SDS011;65652;53.132;18.026;2023-06-10T02:23:45;8.80;;;4.20;;
76727;SDS011;65652;53.132;18.026;2023-06-10T02:26:12;8.50;;;4.10;;
76727;SDS011;65652;53.132;18.026;2023-06-10T02:28:42;12.00;;;4.10;;
76727;SDS011;65652;53.132;18.026;2023-06-10T02:31:09;10.00;;;4.30;;
76727;SDS011;65652;53.132;18.026;2023-06-10T02:36:07;9.40;;;3.90;;
76727;SDS011;65652;53.132;18.026;2023-06-10T02:38:33;8.50;;;3.90;;
76727;SDS011;65652;53.132;18.026;2023-06-10T02:41:01;8.50;;;3.90;;
76727;SDS011;65652;53.132;18.026;2023-06-10T02:43:28;7.50;;;4.00;;
76727;SDS011;65652;53.132;18.026;2023-06-10T02:45:55;8.50;;;4.00;;
76727;SDS011;65652;53.132;18.026;2023-06-10T02:48:26;9.20;;;4.20;;
76727;SDS011;65652;53.132;18.026;2023-06-10T02:50:55;6.60;;;3.70;;
76727;SDS011;65652;53.132;18.026;2023-06-10T02:53:44;8.60;;;4.00;;
76727;SDS011;65652;53.132;18.026;2023-06-10T02:56:13;9.60;;;3.90;;
76727;SDS011;65652;53.132;18.026;2023-06-10T02:58:42;11.50;;;4.10;;
76727;SDS011;65652;53.132;18.026;2023-06-10T03:01:09;8.40;;;4.20;;
76727;SDS011;65652;53.132;18.026;2023-06-10T03:03:52;8.20;;;3.60;;
76727;SDS011;65652;53.132;18.026;2023-06-10T03:06:19;8.00;;;3.90;;
76727;SDS011;65652;53.132;18.026;2023-06-10T03:08:46;9.00;;;4.20;;
76727;SDS011;65652;53.132;18.026;2023-06-10T03:11:15;10.40;;;4.20;;
76727;SDS011;65652;53.132;18.026;2023-06-10T03:13:42;12.60;;;5.00;;
76727;SDS011;65652;53.132;18.026;2023-06-10T03:16:11;9.30;;;4.40;;
76727;SDS011;65652;53.132;18.026;2023-06-10T03:18:39;11.30;;;4.60;;
76727;SDS011;65652;53.132;18.026;2023-06-10T03:21:06;10.00;;;4.70;;
76727;SDS011;65652;53.132;18.026;2023-06-10T03:23:35;9.90;;;4.90;;
76727;SDS011;65652;53.132;18.026;2023-06-10T03:26:02;7.30;;;4.20;;
76727;SDS011;65652;53.132;18.026;2023-06-10T03:28:32;7.70;;;4.90;;
76727;SDS011;65652;53.132;18.026;2023-06-10T03:30:59;9.50;;;4.50;;
76727;SDS011;65652;53.132;18.026;2023-06-10T03:33:26;8.90;;;4.40;;
76727;SDS011;65652;53.132;18.026;2023-06-10T03:35:53;9.20;;;4.30;;
76727;SDS011;65652;53.132;18.026;2023-06-10T03:38:20;8.80;;;4.10;;
76727;SDS011;65652;53.132;18.026;2023-06-10T03:40:48;9.30;;;4.40;;
76727;SDS011;65652;53.132;18.026;2023-06-10T03:43:15;10.30;;;4.80;;
76727;SDS011;65652;53.132;18.026;2023-06-10T03:45:42;8.10;;;3.70;;
76727;SDS011;65652;53.132;18.026;2023-06-10T03:48:10;8.40;;;3.70;;
76727;SDS011;65652;53.132;18.026;2023-06-10T03:50:47;13.30;;;3.70;;
76727;SDS011;65652;53.132;18.026;2023-06-10T03:53:17;8.40;;;3.30;;
76727;SDS011;65652;53.132;18.026;2023-06-10T03:55:44;7.60;;;2.90;;
76727;SDS011;65652;53.132;18.026;2023-06-10T03:58:12;10.10;;;3.50;;
76727;SDS011;65652;53.132;18.026;2023-06-10T04:00:42;9.40;;;4.10;;
76727;SDS011;65652;53.132;18.026;2023-06-10T04:03:09;5.90;;;3.20;;
76727;SDS011;65652;53.132;18.026;2023-06-10T04:05:41;9.20;;;3.90;;
76727;SDS011;65652;53.132;18.026;2023-06-10T04:08:08;8.00;;;3.50;;
76727;SDS011;65652;53.132;18.026;2023-06-10T04:10:35;7.10;;;3.20;;
76727;SDS011;65652;53.132;18.026;2023-06-10T04:13:02;7.70;;;3.60;;
76727;SDS011;65652;53.132;18.026;2023-06-10T04:15:33;9.40;;;3.30;;
76727;SDS011;65652;53.132;18.026;2023-06-10T04:18:02;7.50;;;3.30;;
76727;SDS011;65652;53.132;18.026;2023-06-10T04:20:29;6.80;;;3.10;;
76727;SDS011;65652;53.132;18.026;2023-06-10T04:22:56;8.50;;;3.40;;
76727;SDS011;65652;53.132;18.026;2023-06-10T04:25:23;8.10;;;3.50;;
76727;SDS011;65652;53.132;18.026;2023-06-10T04:27:50;8.10;;;2.90;;
76727;SDS011;65652;53.132;18.026;2023-06-10T04:30:18;7.30;;;2.80;;
76727;SDS011;65652;53.132;18.026;2023-06-10T04:32:45;7.00;;;3.20;;
76727;SDS011;65652;53.132;18.026;2023-06-10T04:35:15;7.30;;;3.00;;
76727;SDS011;65652;53.132;18.026;2023-06-10T04:37:42;7.80;;;3.10;;
76727;SDS011;65652;53.132;18.026;2023-06-10T04:40:10;10.80;;;3.00;;
76727;SDS011;65652;53.132;18.026;2023-06-10T04:42:37;7.50;;;2.90;;
76727;SDS011;65652;53.132;18.026;2023-06-10T04:45:05;8.00;;;3.10;;
76727;SDS011;65652;53.132;18.026;2023-06-10T04:47:32;9.70;;;3.30;;
76727;SDS011;65652;53.132;18.026;2023-06-10T04:50:00;8.60;;;2.90;;
76727;SDS011;65652;53.132;18.026;2023-06-10T04:52:29;6.00;;;2.80;;
76727;SDS011;65652;53.132;18.026;2023-06-10T04:54:59;8.90;;;2.90;;
76727;SDS011;65652;53.132;18.026;2023-06-10T04:57:26;7.30;;;2.70;;
76727;SDS011;65652;53.132;18.026;2023-06-10T04:59:53;9.40;;;2.60;;
76727;SDS011;65652;53.132;18.026;2023-06-10T05:02:20;7.00;;;3.00;;
76727;SDS011;65652;53.132;18.026;2023-06-10T05:04:47;11.40;;;3.00;;
76727;SDS011;65652;53.132;18.026;2023-06-10T05:07:13;6.80;;;2.80;;
76727;SDS011;65652;53.132;18.026;2023-06-10T05:09:40;7.60;;;2.50;;
76727;SDS011;65652;53.132;18.026;2023-06-10T05:12:07;8.00;;;2.50;;
76727;SDS011;65652;53.132;18.026;2023-06-10T05:14:35;8.60;;;2.60;;
76727;SDS011;65652;53.132;18.026;2023-06-10T05:17:03;8.70;;;2.90;;
76727;SDS011;65652;53.132;18.026;2023-06-10T05:19:32;6.40;;;2.80;;
76727;SDS011;65652;53.132;18.026;2023-06-10T05:21:59;6.60;;;2.70;;
76727;SDS011;65652;53.132;18.026;2023-06-10T05:24:26;6.20;;;2.20;;
76727;SDS011;65652;53.132;18.026;2023-06-10T05:26:53;7.20;;;2.30;;
76727;SDS011;65652;53.132;18.026;2023-06-10T05:29:19;7.80;;;2.60;;
76727;SDS011;65652;53.132;18.026;2023-06-10T05:31:46;6.40;;;2.50;;
76727;SDS011;65652;53.132;18.026;2023-06-10T05:34:13;7.50;;;2.50;;
76727;SDS011;65652;53.132;18.026;2023-06-10T05:36:40;8.60;;;2.80;;
76727;SDS011;65652;53.132;18.026;2023-06-10T05:39:09;7.30;;;2.60;;
76727;SDS011;65652;53.132;18.026;2023-06-10T05:41:36;6.90;;;2.50;;
76727;SDS011;65652;53.132;18.026;2023-06-10T05:44:03;7.40;;;3.00;;
76727;SDS011;65652;53.132;18.026;2023-06-10T05:46:31;5.50;;;2.60;;
76727;SDS011;65652;53.132;18.026;2023-06-10T05:48:58;8.10;;;2.50;;
76727;SDS011;65652;53.132;18.026;2023-06-10T05:51:25;9.00;;;2.90;;
76727;SDS011;65652;53.132;18.026;2023-06-10T05:53:52;5.20;;;2.60;;
76727;SDS011;65652;53.132;18.026;2023-06-10T05:56:19;8.80;;;3.10;;
76727;SDS011;65652;53.132;18.026;2023-06-10T05:58:47;7.70;;;2.70;;
76727;SDS011;65652;53.132;18.026;2023-06-10T06:01:13;10.20;;;2.80;;
76727;SDS011;65652;53.132;18.026;2023-06-10T06:03:41;6.80;;;2.80;;
76727;SDS011;65652;53.132;18.026;2023-06-10T06:06:07;7.10;;;2.90;;
76727;SDS011;65652;53.132;18.026;2023-06-10T06:08:34;6.70;;;2.60;;
76727;SDS011;65652;53.132;18.026;2023-06-10T06:11:01;7.30;;;2.70;;
76727;SDS011;65652;53.132;18.026;2023-06-10T06:13:28;9.30;;;3.10;;
76727;SDS011;65652;53.132;18.026;2023-06-10T06:15:55;7.00;;;2.70;;
76727;SDS011;65652;53.132;18.026;2023-06-10T06:18:22;8.00;;;2.70;;
76727;SDS011;65652;53.132;18.026;2023-06-10T06:20:49;6.40;;;2.80;;
76727;SDS011;65652;53.132;18.026;2023-06-10T06:23:16;8.40;;;2.80;;
76727;SDS011;65652;53.132;18.026;2023-06-10T06:25:43;9.70;;;2.90;;
76727;SDS011;65652;53.132;18.026;2023-06-10T06:28:10;7.50;;;3.00;;
76727;SDS011;65652;53.132;18.026;2023-06-10T06:30:37;9.60;;;3.40;;
76727;SDS011;65652;53.132;18.026;2023-06-10T06:33:04;7.00;;;2.40;;
76727;SDS011;65652;53.132;18.026;2023-06-10T06:35:32;8.50;;;3.30;;
76727;SDS011;65652;53.132;18.026;2023-06-10T06:38:00;7.40;;;2.70;;
76727;SDS011;65652;53.132;18.026;2023-06-10T06:40:27;7.20;;;2.40;;
76727;SDS011;65652;53.132;18.026;2023-06-10T06:42:54;7.00;;;2.50;;
76727;SDS011;65652;53.132;18.026;2023-06-10T06:45:36;6.20;;;2.60;;
76727;SDS011;65652;53.132;18.026;2023-06-10T06:48:03;7.60;;;3.00;;
76727;SDS011;65652;53.132;18.026;2023-06-10T06:50:31;6.10;;;2.80;;
76727;SDS011;65652;53.132;18.026;2023-06-10T06:52:58;7.60;;;2.60;;
76727;SDS011;65652;53.132;18.026;2023-06-10T06:55:25;9.80;;;2.60;;
76727;SDS011;65652;53.132;18.026;2023-06-10T06:57:52;6.80;;;3.10;;
76727;SDS011;65652;53.132;18.026;2023-06-10T07:00:19;6.60;;;2.80;;
76727;SDS011;65652;53.132;18.026;2023-06-10T07:02:45;7.00;;;2.50;;
76727;SDS011;65652;53.132;18.026;2023-06-10T07:05:12;7.20;;;2.70;;
76727;SDS011;65652;53.132;18.026;2023-06-10T07:07:39;7.20;;;2.90;;
76727;SDS011;65652;53.132;18.026;2023-06-10T07:10:06;6.30;;;3.20;;
76727;SDS011;65652;53.132;18.026;2023-06-10T07:12:33;7.10;;;2.80;;
76727;SDS011;65652;53.132;18.026;2023-06-10T07:15:00;7.70;;;2.60;;
76727;SDS011;65652;53.132;18.026;2023-06-10T07:17:27;9.30;;;3.10;;
76727;SDS011;65652;53.132;18.026;2023-06-10T07:19:54;6.60;;;3.00;;
76727;SDS011;65652;53.132;18.026;2023-06-10T07:22:23;5.80;;;2.90;;
76727;SDS011;65652;53.132;18.026;2023-06-10T07:24:50;6.50;;;2.90;;
76727;SDS011;65652;53.132;18.026;2023-06-10T07:27:18;7.80;;;2.80;;
76727;SDS011;65652;53.132;18.026;2023-06-10T07:29:45;5.60;;;2.80;;
76727;SDS011;65652;53.132;18.026;2023-06-10T07:32:11;6.40;;;3.00;;
76727;SDS011;65652;53.132;18.026;2023-06-10T07:34:38;5.70;;;2.50;;
76727;SDS011;65652;53.132;18.026;2023-06-10T07:37:05;5.50;;;2.70;;
76727;SDS011;65652;53.132;18.026;2023-06-10T07:39:32;6.50;;;2.70;;
76727;SDS011;65652;53.132;18.026;2023-06-10T07:41:59;7.90;;;3.40;;
76727;SDS011;65652;53.132;18.026;2023-06-10T07:44:26;8.00;;;3.10;;
76727;SDS011;65652;53.132;18.026;2023-06-10T07:46:53;7.00;;;3.20;;
76727;SDS011;65652;53.132;18.026;2023-06-10T07:49:20;8.60;;;3.70;;
76727;SDS011;65652;53.132;18.026;2023-06-10T07:51:46;9.10;;;3.60;;
76727;SDS011;65652;53.132;18.026;2023-06-10T07:54:13;6.80;;;3.20;;
76727;SDS011;65652;53.132;18.026;2023-06-10T07:56:40;7.70;;;3.40;;
76727;SDS011;65652;53.132;18.026;2023-06-10T07:59:07;6.60;;;3.10;;
76727;SDS011;65652;53.132;18.026;2023-06-10T08:01:33;7.00;;;2.90;;
76727;SDS011;65652;53.132;18.026;2023-06-10T08:04:03;7.70;;;2.70;;
76727;SDS011;65652;53.132;18.026;2023-06-10T08:06:30;9.00;;;2.80;;
76727;SDS011;65652;53.132;18.026;2023-06-10T08:08:57;6.70;;;2.60;;
76727;SDS011;65652;53.132;18.026;2023-06-10T08:11:23;6.70;;;2.50;;
76727;SDS011;65652;53.132;18.026;2023-06-10T08:13:51;8.10;;;3.00;;
76727;SDS011;65652;53.132;18.026;2023-06-10T08:16:18;5.90;;;2.80;;
76727;SDS011;65652;53.132;18.026;2023-06-10T08:18:44;7.80;;;3.00;;
76727;SDS011;65652;53.132;18.026;2023-06-10T08:21:11;7.20;;;2.70;;
76727;SDS011;65652;53.132;18.026;2023-06-10T08:23:38;5.70;;;2.40;;
76727;SDS011;65652;53.132;18.026;2023-06-10T08:26:05;8.30;;;3.00;;
76727;SDS011;65652;53.132;18.026;2023-06-10T08:28:32;9.10;;;3.40;;
76727;SDS011;65652;53.132;18.026;2023-06-10T08:30:59;5.40;;;3.00;;
76727;SDS011;65652;53.132;18.026;2023-06-10T08:33:26;5.90;;;2.70;;
76727;SDS011;65652;53.132;18.026;2023-06-10T08:35:52;8.10;;;3.40;;
76727;SDS011;65652;53.132;18.026;2023-06-10T08:38:19;8.50;;;3.10;;
76727;SDS011;65652;53.132;18.026;2023-06-10T08:40:46;7.10;;;3.00;;
76727;SDS011;65652;53.132;18.026;2023-06-10T08:43:17;7.90;;;3.30;;
76727;SDS011;65652;53.132;18.026;2023-06-10T08:45:59;7.70;;;3.10;;
76727;SDS011;65652;53.132;18.026;2023-06-10T08:48:30;6.20;;;3.30;;
76727;SDS011;65652;53.132;18.026;2023-06-10T08:50:59;7.10;;;3.10;;
76727;SDS011;65652;53.132;18.026;2023-06-10T08:53:30;7.20;;;3.30;;
76727;SDS011;65652;53.132;18.026;2023-06-10T08:56:00;9.00;;;3.40;;
76727;SDS011;65652;53.132;18.026;2023-06-10T08:58:31;8.50;;;3.40;;
76727;SDS011;65652;53.132;18.026;2023-06-10T09:01:08;9.80;;;3.10;;
76727;SDS011;65652;53.132;18.026;2023-06-10T09:03:37;6.90;;;3.10;;
76727;SDS011;65652;53.132;18.026;2023-06-10T09:06:04;7.50;;;2.90;;
76727;SDS011;65652;53.132;18.026;2023-06-10T09:08:35;7.80;;;2.90;;
76727;SDS011;65652;53.132;18.026;2023-06-10T09:11:02;8.30;;;3.10;;
76727;SDS011;65652;53.132;18.026;2023-06-10T09:13:29;7.30;;;3.10;;
76727;SDS011;65652;53.132;18.026;2023-06-10T09:15:56;7.90;;;3.40;;
76727;SDS011;65652;53.132;18.026;2023-06-10T09:18:27;7.70;;;2.70;;
76727;SDS011;65652;53.132;18.026;2023-06-10T09:20:54;7.70;;;3.10;;
76727;SDS011;65652;53.132;18.026;2023-06-10T09:23:21;7.60;;;2.80;;
76727;SDS011;65652;53.132;18.026;2023-06-10T09:25:55;6.40;;;2.60;;
76727;SDS011;65652;53.132;18.026;2023-06-10T09:28:24;7.60;;;2.80;;
76727;SDS011;65652;53.132;18.026;2023-06-10T09:31:02;10.20;;;2.80;;
76727;SDS011;65652;53.132;18.026;2023-06-10T09:35:57;8.50;;;2.60;;
76727;SDS011;65652;53.132;18.026;2023-06-10T09:38:31;7.20;;;2.90;;
76727;SDS011;65652;53.132;18.026;2023-06-10T09:41:00;8.90;;;2.90;;
76727;SDS011;65652;53.132;18.026;2023-06-10T09:43:39;8.60;;;2.80;;
76727;SDS011;65652;53.132;18.026;2023-06-10T09:46:17;6.90;;;2.70;;
76727;SDS011;65652;53.132;18.026;2023-06-10T09:48:45;7.30;;;2.50;;
76727;SDS011;65652;53.132;18.026;2023-06-10T09:51:13;9.50;;;2.80;;
76727;SDS011;65652;53.132;18.026;2023-06-10T09:53:41;12.90;;;3.40;;
76727;SDS011;65652;53.132;18.026;2023-06-10T09:56:07;9.90;;;2.70;;
76727;SDS011;65652;53.132;18.026;2023-06-10T09:58:35;6.30;;;2.70;;
76727;SDS011;65652;53.132;18.026;2023-06-10T10:01:10;6.50;;;2.50;;
76727;SDS011;65652;53.132;18.026;2023-06-10T10:03:49;6.20;;;2.40;;
76727;SDS011;65652;53.132;18.026;2023-06-10T10:06:17;7.20;;;2.70;;
76727;SDS011;65652;53.132;18.026;2023-06-10T10:08:46;7.60;;;2.70;;
76727;SDS011;65652;53.132;18.026;2023-06-10T10:11:17;7.30;;;2.90;;
76727;SDS011;65652;53.132;18.026;2023-06-10T10:13:46;5.70;;;2.50;;
76727;SDS011;65652;53.132;18.026;2023-06-10T10:16:20;6.90;;;2.60;;
76727;SDS011;65652;53.132;18.026;2023-06-10T10:18:59;9.00;;;2.50;;
76727;SDS011;65652;53.132;18.026;2023-06-10T10:21:34;7.40;;;2.70;;
76727;SDS011;65652;53.132;18.026;2023-06-10T10:24:18;6.70;;;2.50;;
76727;SDS011;65652;53.132;18.026;2023-06-10T10:26:52;8.90;;;2.90;;
76727;SDS011;65652;53.132;18.026;2023-06-10T10:32:03;6.50;;;2.70;;
76727;SDS011;65652;53.132;18.026;2023-06-10T10:34:37;7.50;;;2.90;;
76727;SDS011;65652;53.132;18.026;2023-06-10T10:37:17;5.80;;;2.70;;
76727;SDS011;65652;53.132;18.026;2023-06-10T10:39:44;6.50;;;2.50;;
76727;SDS011;65652;53.132;18.026;2023-06-10T10:42:11;7.40;;;2.60;;
76727;SDS011;65652;53.132;18.026;2023-06-10T10:44:39;5.80;;;2.80;;
76727;SDS011;65652;53.132;18.026;2023-06-10T10:47:10;7.90;;;2.90;;
76727;SDS011;65652;53.132;18.026;2023-06-10T10:49:38;6.10;;;2.60;;
76727;SDS011;65652;53.132;18.026;2023-06-10T10:52:12;6.20;;;2.60;;
76727;SDS011;65652;53.132;18.026;2023-06-10T10:54:43;6.70;;;2.30;;
76727;SDS011;65652;53.132;18.026;2023-06-10T10:57:16;6.20;;;2.20;;
76727;SDS011;65652;53.132;18.026;2023-06-10T11:02:32;5.60;;;2.30;;
76727;SDS011;65652;53.132;18.026;2023-06-10T11:04:59;6.50;;;2.10;;
76727;SDS011;65652;53.132;18.026;2023-06-10T11:07:30;6.60;;;2.50;;
76727;SDS011;65652;53.132;18.026;2023-06-10T11:09:59;4.90;;;2.60;;
76727;SDS011;65652;53.132;18.026;2023-06-10T11:12:40;5.40;;;2.50;;
76727;SDS011;65652;53.132;18.026;2023-06-10T11:15:13;5.70;;;2.60;;
76727;SDS011;65652;53.132;18.026;2023-06-10T11:23:33;5.50;;;2.20;;
76727;SDS011;65652;53.132;18.026;2023-06-10T11:28:38;4.50;;;2.10;;
76727;SDS011;65652;53.132;18.026;2023-06-10T11:31:05;7.10;;;2.60;;
76727;SDS011;65652;53.132;18.026;2023-06-10T11:35:59;5.30;;;2.30;;
76727;SDS011;65652;53.132;18.026;2023-06-10T11:38:26;4.80;;;2.40;;
76727;SDS011;65652;53.132;18.026;2023-06-10T11:40:53;5.20;;;2.10;;
76727;SDS011;65652;53.132;18.026;2023-06-10T11:43:20;6.60;;;2.40;;
76727;SDS011;65652;53.132;18.026;2023-06-10T11:45:46;5.80;;;2.00;;
76727;SDS011;65652;53.132;18.026;2023-06-10T11:48:13;5.10;;;2.40;;
76727;SDS011;65652;53.132;18.026;2023-06-10T11:50:40;6.30;;;2.50;;
76727;SDS011;65652;53.132;18.026;2023-06-10T11:53:08;6.10;;;2.30;;
76727;SDS011;65652;53.132;18.026;2023-06-10T11:55:41;7.20;;;2.20;;
76727;SDS011;65652;53.132;18.026;2023-06-10T11:58:13;8.00;;;2.30;;
76727;SDS011;65652;53.132;18.026;2023-06-10T12:00:44;7.70;;;2.30;;
76727;SDS011;65652;53.132;18.026;2023-06-10T12:03:13;7.70;;;2.20;;
76727;SDS011;65652;53.132;18.026;2023-06-10T12:08:09;5.10;;;2.30;;
76727;SDS011;65652;53.132;18.026;2023-06-10T12:10:41;6.30;;;2.70;;
76727;SDS011;65652;53.132;18.026;2023-06-10T12:13:08;4.70;;;2.50;;
76727;SDS011;65652;53.132;18.026;2023-06-10T12:15:36;4.50;;;1.90;;
76727;SDS011;65652;53.132;18.026;2023-06-10T12:18:03;12.60;;;2.90;;
76727;SDS011;65652;53.132;18.026;2023-06-10T12:25:35;7.00;;;2.30;;
76727;SDS011;65652;53.132;18.026;2023-06-10T12:28:03;5.30;;;2.30;;
76727;SDS011;65652;53.132;18.026;2023-06-10T12:30:31;6.70;;;2.10;;
76727;SDS011;65652;53.132;18.026;2023-06-10T12:32:58;6.10;;;2.10;;
76727;SDS011;65652;53.132;18.026;2023-06-10T12:35:26;5.40;;;2.30;;
76727;SDS011;65652;53.132;18.026;2023-06-10T12:38:02;6.70;;;2.40;;
76727;SDS011;65652;53.132;18.026;2023-06-10T12:40:33;6.70;;;2.40;;
76727;SDS011;65652;53.132;18.026;2023-06-10T12:43:02;6.60;;;2.10;;
76727;SDS011;65652;53.132;18.026;2023-06-10T12:45:30;5.90;;;2.30;;
76727;SDS011;65652;53.132;18.026;2023-06-10T12:50:33;5.20;;;2.10;;
76727;SDS011;65652;53.132;18.026;2023-06-10T12:53:00;7.10;;;2.10;;
76727;SDS011;65652;53.132;18.026;2023-06-10T12:55:28;4.30;;;2.00;;
76727;SDS011;65652;53.132;18.026;2023-06-10T13:00:22;7.00;;;2.40;;
76727;SDS011;65652;53.132;18.026;2023-06-10T13:02:52;4.30;;;2.00;;
76727;SDS011;65652;53.132;18.026;2023-06-10T13:05:19;6.10;;;2.00;;
76727;SDS011;65652;53.132;18.026;2023-06-10T13:07:47;5.70;;;2.10;;
76727;SDS011;65652;53.132;18.026;2023-06-10T13:10:14;5.00;;;2.00;;
76727;SDS011;65652;53.132;18.026;2023-06-10T13:12:43;5.20;;;1.80;;
76727;SDS011;65652;53.132;18.026;2023-06-10T13:15:10;4.50;;;1.70;;
76727;SDS011;65652;53.132;18.026;2023-06-10T13:17:37;5.40;;;2.30;;
76727;SDS011;65652;53.132;18.026;2023-06-10T13:20:04;6.30;;;2.10;;
76727;SDS011;65652;53.132;18.026;2023-06-10T13:22:33;3.90;;;1.80;;
76727;SDS011;65652;53.132;18.026;2023-06-10T13:25:03;6.10;;;2.10;;
76727;SDS011;65652;53.132;18.026;2023-06-10T13:27:31;6.10;;;2.00;;
76727;SDS011;65652;53.132;18.026;2023-06-10T13:29:58;5.40;;;1.90;;
76727;SDS011;65652;53.132;18.026;2023-06-10T13:32:25;5.60;;;2.10;;
76727;SDS011;65652;53.132;18.026;2023-06-10T13:34:52;5.00;;;2.10;;
76727;SDS011;65652;53.132;18.026;2023-06-10T13:37:21;6.30;;;2.00;;
76727;SDS011;65652;53.132;18.026;2023-06-10T13:39:48;5.60;;;2.30;;
76727;SDS011;65652;53.132;18.026;2023-06-10T13:42:17;5.20;;;2.30;;
76727;SDS011;65652;53.132;18.026;2023-06-10T13:44:44;5.80;;;1.80;;
76727;SDS011;65652;53.132;18.026;2023-06-10T13:47:11;6.90;;;2.20;;
76727;SDS011;65652;53.132;18.026;2023-06-10T13:49:38;4.90;;;1.80;;
76727;SDS011;65652;53.132;18.026;2023-06-10T13:54:32;4.30;;;1.90;;
76727;SDS011;65652;53.132;18.026;2023-06-10T13:56:59;6.90;;;2.20;;
76727;SDS011;65652;53.132;18.026;2023-06-10T13:59:26;4.80;;;1.90;;
76727;SDS011;65652;53.132;18.026;2023-06-10T14:01:53;4.50;;;1.80;;
76727;SDS011;65652;53.132;18.026;2023-06-10T14:04:20;4.80;;;2.00;;
76727;SDS011;65652;53.132;18.026;2023-06-10T14:06:48;4.90;;;1.70;;
76727;SDS011;65652;53.132;18.026;2023-06-10T14:09:15;5.20;;;1.70;;
76727;SDS011;65652;53.132;18.026;2023-06-10T14:11:42;5.10;;;2.00;;
76727;SDS011;65652;53.132;18.026;2023-06-10T14:14:10;4.40;;;1.80;;
76727;SDS011;65652;53.132;18.026;2023-06-10T14:16:37;7.40;;;2.00;;
76727;SDS011;65652;53.132;18.026;2023-06-10T14:19:03;5.60;;;2.10;;
76727;SDS011;65652;53.132;18.026;2023-06-10T14:21:30;6.40;;;1.90;;
76727;SDS011;65652;53.132;18.026;2023-06-10T14:23:57;6.60;;;2.00;;
76727;SDS011;65652;53.132;18.026;2023-06-10T14:28:52;4.50;;;1.70;;
76727;SDS011;65652;53.132;18.026;2023-06-10T14:31:19;5.60;;;1.70;;
76727;SDS011;65652;53.132;18.026;2023-06-10T14:33:46;4.50;;;1.60;;
76727;SDS011;65652;53.132;18.026;2023-06-10T14:36:13;4.90;;;1.80;;
76727;SDS011;65652;53.132;18.026;2023-06-10T14:38:40;7.30;;;1.60;;
76727;SDS011;65652;53.132;18.026;2023-06-10T14:41:06;4.80;;;1.60;;
76727;SDS011;65652;53.132;18.026;2023-06-10T14:43:33;4.90;;;1.50;;
76727;SDS011;65652;53.132;18.026;2023-06-10T14:46:00;4.40;;;1.70;;
76727;SDS011;65652;53.132;18.026;2023-06-10T14:48:27;6.60;;;1.80;;
76727;SDS011;65652;53.132;18.026;2023-06-10T14:50:54;5.40;;;1.70;;
76727;SDS011;65652;53.132;18.026;2023-06-10T14:53:21;4.20;;;1.80;;
76727;SDS011;65652;53.132;18.026;2023-06-10T14:55:48;6.50;;;1.70;;
76727;SDS011;65652;53.132;18.026;2023-06-10T14:58:15;5.70;;;1.80;;
76727;SDS011;65652;53.132;18.026;2023-06-10T15:03:09;5.70;;;1.80;;
76727;SDS011;65652;53.132;18.026;2023-06-10T15:05:36;4.60;;;1.60;;
76727;SDS011;65652;53.132;18.026;2023-06-10T15:08:04;7.60;;;1.70;;
76727;SDS011;65652;53.132;18.026;2023-06-10T15:10:31;5.10;;;1.80;;
76727;SDS011;65652;53.132;18.026;2023-06-10T15:12:58;5.00;;;1.90;;
76727;SDS011;65652;53.132;18.026;2023-06-10T15:15:25;5.70;;;1.70;;
76727;SDS011;65652;53.132;18.026;2023-06-10T15:17:52;4.30;;;1.60;;
76727;SDS011;65652;53.132;18.026;2023-06-10T15:20:20;7.10;;;1.70;;
76727;SDS011;65652;53.132;18.026;2023-06-10T15:22:46;5.40;;;1.90;;
76727;SDS011;65652;53.132;18.026;2023-06-10T15:25:13;5.90;;;2.30;;
76727;SDS011;65652;53.132;18.026;2023-06-10T15:27:40;5.50;;;1.60;;